Terminal Aerodrome Forecast
Issued by NWS Bismarck, ND

Home | Current Version | Previous Version | Text Only | Print | Product List | Glossary On
Versions: 1 2 3 4 5 6 7 8 9 10 11 12 13 14 15 16 17
000
FTUS43 KBIS 261130
TAFISN
TAF
KISN 261130Z 2612/2712 27015KT P6SM OVC035
      TEMPO 2612/2614 BKN025
     FM261600 29017G26KT P6SM SCT035 BKN050
     FM262000 30015G23KT P6SM SCT070
     FM270100 30009KT P6SM FEW070 SCT090=

USA.gov is the U.S. government's official web portal to all federal, state and local government web resources and services.